sensor_id;sensor_type;location;lat;lon;timestamp;temperature;humidity
29403;DHT22;16382;59.942;30.472;2022-10-03T00:02:06;6.90;99.90
29403;DHT22;16382;59.942;30.472;2022-10-03T00:04:55;6.90;99.90
29403;DHT22;16382;59.942;30.472;2022-10-03T00:07:54;6.90;99.90
29403;DHT22;16382;59.942;30.472;2022-10-03T00:10:33;6.90;99.90
29403;DHT22;16382;59.942;30.472;2022-10-03T00:13:11;6.80;99.90
29403;DHT22;16382;59.942;30.472;2022-10-03T00:15:47;6.80;99.90
29403;DHT22;16382;59.942;30.472;2022-10-03T00:18:28;6.80;99.90
29403;DHT22;16382;59.942;30.472;2022-10-03T00:21:08;6.90;99.90
29403;DHT22;16382;59.942;30.472;2022-10-03T00:23:49;6.80;99.90
29403;DHT22;16382;59.942;30.472;2022-10-03T00:26:28;6.90;99.90
29403;DHT22;16382;59.942;30.472;2022-10-03T00:29:27;6.90;99.90
29403;DHT22;16382;59.942;30.472;2022-10-03T00:32:12;6.90;99.90
29403;DHT22;16382;59.942;30.472;2022-10-03T00:35:09;6.90;99.90
29403;DHT22;16382;59.942;30.472;2022-10-03T00:37:46;6.90;99.90
29403;DHT22;16382;59.942;30.472;2022-10-03T00:41:03;6.90;99.90
29403;DHT22;16382;59.942;30.472;2022-10-03T00:44:04;6.90;99.90
29403;DHT22;16382;59.942;30.472;2022-10-03T00:50:51;6.90;99.90
29403;DHT22;16382;59.942;30.472;2022-10-03T00:56:33;6.90;99.90
29403;DHT22;16382;59.942;30.472;2022-10-03T00:59:24;6.90;99.90
29403;DHT22;16382;59.942;30.472;2022-10-03T01:02:18;6.90;99.90
29403;DHT22;16382;59.942;30.472;2022-10-03T01:04:59;7.00;99.90
29403;DHT22;16382;59.942;30.472;2022-10-03T01:07:52;7.00;99.90
29403;DHT22;16382;59.942;30.472;2022-10-03T01:10:42;7.00;99.90
29403;DHT22;16382;59.942;30.472;2022-10-03T01:13:23;7.00;99.90
29403;DHT22;16382;59.942;30.472;2022-10-03T01:16:07;7.00;99.90
29403;DHT22;16382;59.942;30.472;2022-10-03T01:18:49;7.00;99.90
29403;DHT22;16382;59.942;30.472;2022-10-03T01:21:33;7.00;99.90
29403;DHT22;16382;59.942;30.472;2022-10-03T01:24:45;7.00;99.90
29403;DHT22;16382;59.942;30.472;2022-10-03T01:27:24;7.00;99.90
29403;DHT22;16382;59.942;30.472;2022-10-03T01:30:02;7.00;99.90
29403;DHT22;16382;59.942;30.472;2022-10-03T01:32:58;7.00;99.90
29403;DHT22;16382;59.942;30.472;2022-10-03T01:35:35;7.00;99.90
29403;DHT22;16382;59.942;30.472;2022-10-03T01:38:15;7.00;99.90
29403;DHT22;16382;59.942;30.472;2022-10-03T01:40:52;7.00;99.90
29403;DHT22;16382;59.942;30.472;2022-10-03T01:43:35;7.10;99.90
29403;DHT22;16382;59.942;30.472;2022-10-03T01:46:11;7.10;99.90
29403;DHT22;16382;59.942;30.472;2022-10-03T01:48:50;7.10;99.90
29403;DHT22;16382;59.942;30.472;2022-10-03T01:51:25;7.10;99.90
29403;DHT22;16382;59.942;30.472;2022-10-03T01:54:09;7.10;99.90
29403;DHT22;16382;59.942;30.472;2022-10-03T01:56:48;7.10;99.90
29403;DHT22;16382;59.942;30.472;2022-10-03T01:59:23;7.10;99.90
29403;DHT22;16382;59.942;30.472;2022-10-03T02:02:07;7.20;99.90
29403;DHT22;16382;59.942;30.472;2022-10-03T02:04:46;7.20;99.90
29403;DHT22;16382;59.942;30.472;2022-10-03T02:07:22;7.20;99.90
29403;DHT22;16382;59.942;30.472;2022-10-03T02:10:04;7.20;99.90
29403;DHT22;16382;59.942;30.472;2022-10-03T02:12:38;7.20;99.90
29403;DHT22;16382;59.942;30.472;2022-10-03T02:15:16;7.20;99.90
29403;DHT22;16382;59.942;30.472;2022-10-03T02:17:52;7.20;99.90
29403;DHT22;16382;59.942;30.472;2022-10-03T02:20:27;7.30;99.90
29403;DHT22;16382;59.942;30.472;2022-10-03T02:23:00;7.30;99.90
29403;DHT22;16382;59.942;30.472;2022-10-03T02:25:48;7.20;99.90
29403;DHT22;16382;59.942;30.472;2022-10-03T02:35:12;7.30;99.90
29403;DHT22;16382;59.942;30.472;2022-10-03T02:38:04;7.30;99.90
29403;DHT22;16382;59.942;30.472;2022-10-03T02:40:49;7.30;99.90
29403;DHT22;16382;59.942;30.472;2022-10-03T02:43:55;7.40;99.90
29403;DHT22;16382;59.942;30.472;2022-10-03T02:54:14;7.40;99.90
29403;DHT22;16382;59.942;30.472;2022-10-03T03:00:37;7.50;99.90
29403;DHT22;16382;59.942;30.472;2022-10-03T03:03:28;7.60;99.90
29403;DHT22;16382;59.942;30.472;2022-10-03T03:06:39;7.60;99.90
29403;DHT22;16382;59.942;30.472;2022-10-03T03:16:13;7.70;99.90
29403;DHT22;16382;59.942;30.472;2022-10-03T03:19:09;7.70;99.90
29403;DHT22;16382;59.942;30.472;2022-10-03T03:21:52;7.70;99.90
29403;DHT22;16382;59.942;30.472;2022-10-03T03:27:39;7.70;99.90
29403;DHT22;16382;59.942;30.472;2022-10-03T03:30:11;7.70;99.90
29403;DHT22;16382;59.942;30.472;2022-10-03T03:32:59;7.70;99.90
29403;DHT22;16382;59.942;30.472;2022-10-03T03:35:42;7.70;99.90
29403;DHT22;16382;59.942;30.472;2022-10-03T03:38:26;7.70;99.90
29403;DHT22;16382;59.942;30.472;2022-10-03T03:41:08;7.70;99.90
29403;DHT22;16382;59.942;30.472;2022-10-03T03:43:58;7.70;99.90
29403;DHT22;16382;59.942;30.472;2022-10-03T03:46:43;7.70;99.90
29403;DHT22;16382;59.942;30.472;2022-10-03T03:49:29;7.70;99.90
29403;DHT22;16382;59.942;30.472;2022-10-03T03:52:24;7.80;99.90
29403;DHT22;16382;59.942;30.472;2022-10-03T03:55:17;7.80;99.90
29403;DHT22;16382;59.942;30.472;2022-10-03T03:58:15;7.80;99.90
29403;DHT22;16382;59.942;30.472;2022-10-03T04:00:52;7.80;99.90
29403;DHT22;16382;59.942;30.472;2022-10-03T04:03:38;7.80;99.90
29403;DHT22;16382;59.942;30.472;2022-10-03T04:06:28;7.90;99.90
29403;DHT22;16382;59.942;30.472;2022-10-03T04:09:33;7.90;99.90
29403;DHT22;16382;59.942;30.472;2022-10-03T04:12:18;7.90;99.90
29403;DHT22;16382;59.942;30.472;2022-10-03T04:15:07;7.90;99.90
29403;DHT22;16382;59.942;30.472;2022-10-03T04:18:09;8.00;99.90
29403;DHT22;16382;59.942;30.472;2022-10-03T04:21:21;8.00;99.90
29403;DHT22;16382;59.942;30.472;2022-10-03T04:24:27;8.10;99.90
29403;DHT22;16382;59.942;30.472;2022-10-03T04:27:25;8.10;99.90
29403;DHT22;16382;59.942;30.472;2022-10-03T04:30:08;8.10;99.90
29403;DHT22;16382;59.942;30.472;2022-10-03T04:32:48;8.20;99.90
29403;DHT22;16382;59.942;30.472;2022-10-03T04:38:28;8.20;99.90
29403;DHT22;16382;59.942;30.472;2022-10-03T04:41:16;8.30;99.90
29403;DHT22;16382;59.942;30.472;2022-10-03T04:43:57;8.30;99.90
29403;DHT22;16382;59.942;30.472;2022-10-03T04:46:32;8.30;99.90
29403;DHT22;16382;59.942;30.472;2022-10-03T04:49:12;8.40;99.90
29403;DHT22;16382;59.942;30.472;2022-10-03T04:51:50;8.40;99.90
29403;DHT22;16382;59.942;30.472;2022-10-03T04:54:26;8.50;99.90
29403;DHT22;16382;59.942;30.472;2022-10-03T04:57:03;8.50;99.90
29403;DHT22;16382;59.942;30.472;2022-10-03T04:59:49;8.50;99.90
29403;DHT22;16382;59.942;30.472;2022-10-03T05:02:27;8.60;99.90
29403;DHT22;16382;59.942;30.472;2022-10-03T05:05:17;8.60;99.90
29403;DHT22;16382;59.942;30.472;2022-10-03T05:07:54;8.60;99.90
29403;DHT22;16382;59.942;30.472;2022-10-03T05:10:39;8.60;99.90
29403;DHT22;16382;59.942;30.472;2022-10-03T05:13:18;8.70;99.90
29403;DHT22;16382;59.942;30.472;2022-10-03T05:15:58;8.70;99.90
29403;DHT22;16382;59.942;30.472;2022-10-03T05:18:37;8.70;99.90
29403;DHT22;16382;59.942;30.472;2022-10-03T05:21:11;8.80;99.90
29403;DHT22;16382;59.942;30.472;2022-10-03T05:23:48;8.80;99.90
29403;DHT22;16382;59.942;30.472;2022-10-03T05:26:26;8.80;99.90
29403;DHT22;16382;59.942;30.472;2022-10-03T05:29:09;8.80;99.90
29403;DHT22;16382;59.942;30.472;2022-10-03T05:31:52;8.80;99.90
29403;DHT22;16382;59.942;30.472;2022-10-03T05:34:37;8.80;99.90
29403;DHT22;16382;59.942;30.472;2022-10-03T05:37:27;8.80;99.90
29403;DHT22;16382;59.942;30.472;2022-10-03T05:40:14;8.80;99.90
29403;DHT22;16382;59.942;30.472;2022-10-03T05:43:00;8.90;99.90
29403;DHT22;16382;59.942;30.472;2022-10-03T05:45:38;8.90;99.90
29403;DHT22;16382;59.942;30.472;2022-10-03T05:48:27;8.90;99.90
29403;DHT22;16382;59.942;30.472;2022-10-03T05:51:27;9.00;99.90
29403;DHT22;16382;59.942;30.472;2022-10-03T05:54:41;9.00;99.90
29403;DHT22;16382;59.942;30.472;2022-10-03T06:01:02;9.20;99.90
29403;DHT22;16382;59.942;30.472;2022-10-03T06:04:13;9.30;99.90
29403;DHT22;16382;59.942;30.472;2022-10-03T06:07:01;9.30;99.90
29403;DHT22;16382;59.942;30.472;2022-10-03T06:13:19;9.30;99.90
29403;DHT22;16382;59.942;30.472;2022-10-03T06:15:58;9.30;99.90
29403;DHT22;16382;59.942;30.472;2022-10-03T06:19:03;9.30;99.90
29403;DHT22;16382;59.942;30.472;2022-10-03T06:32:10;9.30;99.90
29403;DHT22;16382;59.942;30.472;2022-10-03T06:35:12;9.30;99.90
29403;DHT22;16382;59.942;30.472;2022-10-03T06:44:51;9.30;99.90
29403;DHT22;16382;59.942;30.472;2022-10-03T06:47:40;9.30;99.90
29403;DHT22;16382;59.942;30.472;2022-10-03T06:50:36;9.30;99.90
29403;DHT22;16382;59.942;30.472;2022-10-03T06:53:26;9.30;99.90
29403;DHT22;16382;59.942;30.472;2022-10-03T06:59:44;9.40;99.90
29403;DHT22;16382;59.942;30.472;2022-10-03T07:03:09;9.40;99.90
29403;DHT22;16382;59.942;30.472;2022-10-03T07:09:38;9.50;99.90
29403;DHT22;16382;59.942;30.472;2022-10-03T07:12:45;9.50;99.90
29403;DHT22;16382;59.942;30.472;2022-10-03T07:19:15;9.60;99.90
29403;DHT22;16382;59.942;30.472;2022-10-03T07:22:15;9.60;99.90
29403;DHT22;16382;59.942;30.472;2022-10-03T07:29:17;9.50;99.90
29403;DHT22;16382;59.942;30.472;2022-10-03T07:32:09;9.50;99.90
29403;DHT22;16382;59.942;30.472;2022-10-03T07:35:08;9.50;99.90
29403;DHT22;16382;59.942;30.472;2022-10-03T07:45:19;9.50;99.90
29403;DHT22;16382;59.942;30.472;2022-10-03T07:48:14;9.60;99.90
29403;DHT22;16382;59.942;30.472;2022-10-03T07:51:13;9.60;99.90
29403;DHT22;16382;59.942;30.472;2022-10-03T07:54:16;9.60;99.90
29403;DHT22;16382;59.942;30.472;2022-10-03T07:57:15;9.70;99.90
29403;DHT22;16382;59.942;30.472;2022-10-03T08:00:19;9.80;99.90
29403;DHT22;16382;59.942;30.472;2022-10-03T08:06:07;10.00;99.90
29403;DHT22;16382;59.942;30.472;2022-10-03T08:15:49;9.90;99.90
29403;DHT22;16382;59.942;30.472;2022-10-03T08:18:56;9.90;99.90
29403;DHT22;16382;59.942;30.472;2022-10-03T08:21:41;9.90;99.90
29403;DHT22;16382;59.942;30.472;2022-10-03T08:24:27;9.80;99.90
29403;DHT22;16382;59.942;30.472;2022-10-03T08:27:43;9.80;99.90
29403;DHT22;16382;59.942;30.472;2022-10-03T08:30:26;9.80;99.90
29403;DHT22;16382;59.942;30.472;2022-10-03T08:33:27;9.80;99.90
29403;DHT22;16382;59.942;30.472;2022-10-03T08:36:48;9.90;99.90
29403;DHT22;16382;59.942;30.472;2022-10-03T08:39:46;9.90;99.90
29403;DHT22;16382;59.942;30.472;2022-10-03T08:46:12;10.00;99.90
29403;DHT22;16382;59.942;30.472;2022-10-03T08:49:02;10.00;99.90
29403;DHT22;16382;59.942;30.472;2022-10-03T08:52:18;10.00;99.90
29403;DHT22;16382;59.942;30.472;2022-10-03T08:55:40;10.10;99.90
29403;DHT22;16382;59.942;30.472;2022-10-03T08:58:34;10.10;99.90
29403;DHT22;16382;59.942;30.472;2022-10-03T09:05:24;10.30;99.90
29403;DHT22;16382;59.942;30.472;2022-10-03T09:14:52;10.40;99.90
29403;DHT22;16382;59.942;30.472;2022-10-03T09:18:00;10.40;99.90
29403;DHT22;16382;59.942;30.472;2022-10-03T09:21:05;10.40;99.90
29403;DHT22;16382;59.942;30.472;2022-10-03T09:24:11;10.30;99.90
29403;DHT22;16382;59.942;30.472;2022-10-03T09:27:16;10.40;99.90
29403;DHT22;16382;59.942;30.472;2022-10-03T09:30:20;10.40;99.90
29403;DHT22;16382;59.942;30.472;2022-10-03T09:33:21;10.30;99.90
29403;DHT22;16382;59.942;30.472;2022-10-03T09:36:38;10.30;99.90
29403;DHT22;16382;59.942;30.472;2022-10-03T09:39:50;10.20;99.90
29403;DHT22;16382;59.942;30.472;2022-10-03T09:43:02;10.20;99.90
29403;DHT22;16382;59.942;30.472;2022-10-03T09:46:21;10.20;99.90
29403;DHT22;16382;59.942;30.472;2022-10-03T09:49:33;10.20;99.90
29403;DHT22;16382;59.942;30.472;2022-10-03T09:52:36;10.10;99.90
29403;DHT22;16382;59.942;30.472;2022-10-03T09:55:29;10.10;99.90
29403;DHT22;16382;59.942;30.472;2022-10-03T09:58:18;10.00;99.90
29403;DHT22;16382;59.942;30.472;2022-10-03T10:01:13;10.00;99.90
29403;DHT22;16382;59.942;30.472;2022-10-03T10:04:14;10.00;99.90
29403;DHT22;16382;59.942;30.472;2022-10-03T10:13:57;9.90;99.90
29403;DHT22;16382;59.942;30.472;2022-10-03T10:20:23;10.00;99.90
29403;DHT22;16382;59.942;30.472;2022-10-03T10:23:27;9.90;99.90
29403;DHT22;16382;59.942;30.472;2022-10-03T10:36:37;9.80;99.90
29403;DHT22;16382;59.942;30.472;2022-10-03T10:39:47;9.80;99.90
29403;DHT22;16382;59.942;30.472;2022-10-03T10:42:53;9.80;99.90
29403;DHT22;16382;59.942;30.472;2022-10-03T10:45:43;9.90;99.90
29403;DHT22;16382;59.942;30.472;2022-10-03T10:52:14;9.90;99.90
29403;DHT22;16382;59.942;30.472;2022-10-03T11:06:40;9.90;99.90
29403;DHT22;16382;59.942;30.472;2022-10-03T11:09:38;9.80;99.90
29403;DHT22;16382;59.942;30.472;2022-10-03T11:12:38;9.90;99.90
29403;DHT22;16382;59.942;30.472;2022-10-03T11:22:21;10.00;99.90
29403;DHT22;16382;59.942;30.472;2022-10-03T11:33:00;10.00;99.90
29403;DHT22;16382;59.942;30.472;2022-10-03T11:39:21;10.10;99.90
29403;DHT22;16382;59.942;30.472;2022-10-03T11:41:58;10.10;99.90
29403;DHT22;16382;59.942;30.472;2022-10-03T11:44:29;10.10;99.90
29403;DHT22;16382;59.942;30.472;2022-10-03T11:47:20;10.10;99.90
29403;DHT22;16382;59.942;30.472;2022-10-03T11:50:26;10.10;99.90
29403;DHT22;16382;59.942;30.472;2022-10-03T11:53:11;10.10;99.90
29403;DHT22;16382;59.942;30.472;2022-10-03T11:56:02;10.10;99.90
29403;DHT22;16382;59.942;30.472;2022-10-03T11:59:07;10.10;99.90
29403;DHT22;16382;59.942;30.472;2022-10-03T12:02:06;10.10;99.90
29403;DHT22;16382;59.942;30.472;2022-10-03T12:04:47;10.10;99.90
29403;DHT22;16382;59.942;30.472;2022-10-03T12:07:39;10.10;99.90
29403;DHT22;16382;59.942;30.472;2022-10-03T12:10:40;10.00;99.90
29403;DHT22;16382;59.942;30.472;2022-10-03T12:13:16;10.00;99.90
29403;DHT22;16382;59.942;30.472;2022-10-03T12:15:47;10.10;99.90
29403;DHT22;16382;59.942;30.472;2022-10-03T12:18:23;10.00;99.90
29403;DHT22;16382;59.942;30.472;2022-10-03T12:21:04;10.00;99.90
29403;DHT22;16382;59.942;30.472;2022-10-03T12:24:00;9.90;99.90
29403;DHT22;16382;59.942;30.472;2022-10-03T12:26:41;9.90;99.90
29403;DHT22;16382;59.942;30.472;2022-10-03T12:29:17;9.90;99.90
29403;DHT22;16382;59.942;30.472;2022-10-03T12:31:54;9.90;99.90
29403;DHT22;16382;59.942;30.472;2022-10-03T12:34:37;9.90;99.90
29403;DHT22;16382;59.942;30.472;2022-10-03T12:37:25;9.80;99.90
29403;DHT22;16382;59.942;30.472;2022-10-03T12:40:04;9.90;99.90
29403;DHT22;16382;59.942;30.472;2022-10-03T12:42:42;9.80;99.90
29403;DHT22;16382;59.942;30.472;2022-10-03T12:45:22;9.80;99.90
29403;DHT22;16382;59.942;30.472;2022-10-03T12:48:14;9.80;99.90
29403;DHT22;16382;59.942;30.472;2022-10-03T12:51:38;9.70;99.90
29403;DHT22;16382;59.942;30.472;2022-10-03T12:54:34;9.70;99.90
29403;DHT22;16382;59.942;30.472;2022-10-03T12:57:32;9.60;99.90
29403;DHT22;16382;59.942;30.472;2022-10-03T13:00:25;9.50;99.90
29403;DHT22;16382;59.942;30.472;2022-10-03T13:03:14;9.50;99.90
29403;DHT22;16382;59.942;30.472;2022-10-03T13:06:22;9.50;99.90
29403;DHT22;16382;59.942;30.472;2022-10-03T13:09:14;9.50;99.90
29403;DHT22;16382;59.942;30.472;2022-10-03T13:12:02;9.40;99.90
29403;DHT22;16382;59.942;30.472;2022-10-03T13:15:31;9.30;99.90
29403;DHT22;16382;59.942;30.472;2022-10-03T13:18:03;9.20;99.90
29403;DHT22;16382;59.942;30.472;2022-10-03T13:20:37;9.20;99.90
29403;DHT22;16382;59.942;30.472;2022-10-03T13:23:10;9.20;99.90
29403;DHT22;16382;59.942;30.472;2022-10-03T13:25:51;9.20;99.90
29403;DHT22;16382;59.942;30.472;2022-10-03T13:28:29;9.20;99.90
29403;DHT22;16382;59.942;30.472;2022-10-03T13:31:03;9.20;99.90
29403;DHT22;16382;59.942;30.472;2022-10-03T13:33:41;9.10;99.90
29403;DHT22;16382;59.942;30.472;2022-10-03T13:36:18;9.10;99.90
29403;DHT22;16382;59.942;30.472;2022-10-03T13:39:02;9.00;99.90
29403;DHT22;16382;59.942;30.472;2022-10-03T13:41:53;9.00;99.90
29403;DHT22;16382;59.942;30.472;2022-10-03T13:44:34;9.00;99.90
29403;DHT22;16382;59.942;30.472;2022-10-03T13:47:16;9.00;99.90
29403;DHT22;16382;59.942;30.472;2022-10-03T13:49:53;9.00;99.90
29403;DHT22;16382;59.942;30.472;2022-10-03T13:52:35;9.00;99.90
29403;DHT22;16382;59.942;30.472;2022-10-03T13:55:16;9.00;99.90
29403;DHT22;16382;59.942;30.472;2022-10-03T13:58:15;8.90;99.90
29403;DHT22;16382;59.942;30.472;2022-10-03T14:01:04;8.90;99.90
29403;DHT22;16382;59.942;30.472;2022-10-03T14:03:53;8.90;99.90
29403;DHT22;16382;59.942;30.472;2022-10-03T14:06:46;8.90;99.90
29403;DHT22;16382;59.942;30.472;2022-10-03T14:09:35;8.90;99.90
29403;DHT22;16382;59.942;30.472;2022-10-03T14:12:13;8.90;99.90
29403;DHT22;16382;59.942;30.472;2022-10-03T14:15:16;8.90;99.90
29403;DHT22;16382;59.942;30.472;2022-10-03T14:17:55;8.90;99.90
29403;DHT22;16382;59.942;30.472;2022-10-03T14:20:29;8.90;99.90
29403;DHT22;16382;59.942;30.472;2022-10-03T14:23:09;8.90;99.90
29403;DHT22;16382;59.942;30.472;2022-10-03T14:25:46;8.90;99.90
29403;DHT22;16382;59.942;30.472;2022-10-03T14:28:21;8.80;99.90
29403;DHT22;16382;59.942;30.472;2022-10-03T14:30:59;8.80;99.90
29403;DHT22;16382;59.942;30.472;2022-10-03T14:33:37;8.70;99.90
29403;DHT22;16382;59.942;30.472;2022-10-03T14:36:21;8.70;99.90
29403;DHT22;16382;59.942;30.472;2022-10-03T14:39:04;8.70;99.90
29403;DHT22;16382;59.942;30.472;2022-10-03T14:44:57;8.70;99.90
29403;DHT22;16382;59.942;30.472;2022-10-03T14:47:33;8.60;99.90
29403;DHT22;16382;59.942;30.472;2022-10-03T14:50:04;8.60;99.90
29403;DHT22;16382;59.942;30.472;2022-10-03T14:52:38;8.60;99.90
29403;DHT22;16382;59.942;30.472;2022-10-03T14:55:14;8.60;99.90
29403;DHT22;16382;59.942;30.472;2022-10-03T14:57:47;8.60;99.90
29403;DHT22;16382;59.942;30.472;2022-10-03T15:00:33;8.60;99.90
29403;DHT22;16382;59.942;30.472;2022-10-03T15:03:35;8.60;99.90
29403;DHT22;16382;59.942;30.472;2022-10-03T15:06:32;8.60;99.90
29403;DHT22;16382;59.942;30.472;2022-10-03T15:09:08;8.60;99.90
29403;DHT22;16382;59.942;30.472;2022-10-03T15:11:44;8.50;99.90
29403;DHT22;16382;59.942;30.472;2022-10-03T15:14:14;8.40;99.90
29403;DHT22;16382;59.942;30.472;2022-10-03T15:16:45;8.40;99.90
29403;DHT22;16382;59.942;30.472;2022-10-03T15:19:17;8.30;99.90
29403;DHT22;16382;59.942;30.472;2022-10-03T15:21:50;8.30;99.90
29403;DHT22;16382;59.942;30.472;2022-10-03T15:24:23;8.20;99.90
29403;DHT22;16382;59.942;30.472;2022-10-03T15:27:01;8.30;99.90
29403;DHT22;16382;59.942;30.472;2022-10-03T15:29:30;8.30;99.90
29403;DHT22;16382;59.942;30.472;2022-10-03T15:32:02;8.30;99.90
29403;DHT22;16382;59.942;30.472;2022-10-03T15:34:32;8.30;99.90
29403;DHT22;16382;59.942;30.472;2022-10-03T15:37:08;8.30;99.90
29403;DHT22;16382;59.942;30.472;2022-10-03T15:39:42;8.30;99.90
29403;DHT22;16382;59.942;30.472;2022-10-03T15:42:21;8.30;99.90
29403;DHT22;16382;59.942;30.472;2022-10-03T15:44:52;8.30;99.90
29403;DHT22;16382;59.942;30.472;2022-10-03T15:47:24;8.30;99.90
29403;DHT22;16382;59.942;30.472;2022-10-03T15:49:54;8.30;99.90
29403;DHT22;16382;59.942;30.472;2022-10-03T15:52:32;8.30;99.90
29403;DHT22;16382;59.942;30.472;2022-10-03T15:55:11;8.30;99.90
29403;DHT22;16382;59.942;30.472;2022-10-03T15:57:45;8.30;99.90
29403;DHT22;16382;59.942;30.472;2022-10-03T16:00:21;8.30;99.90
29403;DHT22;16382;59.942;30.472;2022-10-03T16:02:55;8.30;99.90
29403;DHT22;16382;59.942;30.472;2022-10-03T16:05:29;8.30;99.90
29403;DHT22;16382;59.942;30.472;2022-10-03T16:08:00;8.30;99.90
29403;DHT22;16382;59.942;30.472;2022-10-03T16:10:36;8.30;99.90
29403;DHT22;16382;59.942;30.472;2022-10-03T16:13:17;8.30;99.90
29403;DHT22;16382;59.942;30.472;2022-10-03T16:16:05;8.30;99.90
29403;DHT22;16382;59.942;30.472;2022-10-03T16:18:54;8.30;99.90
29403;DHT22;16382;59.942;30.472;2022-10-03T16:21:37;8.30;99.90
29403;DHT22;16382;59.942;30.472;2022-10-03T16:24:17;8.30;99.90
29403;DHT22;16382;59.942;30.472;2022-10-03T16:26:53;8.30;99.90
29403;DHT22;16382;59.942;30.472;2022-10-03T16:29:26;8.20;99.90
29403;DHT22;16382;59.942;30.472;2022-10-03T16:31:57;8.20;99.90
29403;DHT22;16382;59.942;30.472;2022-10-03T16:34:28;8.20;99.90
29403;DHT22;16382;59.942;30.472;2022-10-03T16:36:57;8.20;99.90
29403;DHT22;16382;59.942;30.472;2022-10-03T16:39:28;8.30;99.90
29403;DHT22;16382;59.942;30.472;2022-10-03T16:42:00;8.30;99.90
29403;DHT22;16382;59.942;30.472;2022-10-03T16:44:39;8.30;99.90
29403;DHT22;16382;59.942;30.472;2022-10-03T16:47:18;8.30;99.90
29403;DHT22;16382;59.942;30.472;2022-10-03T16:49:56;8.30;99.90
29403;DHT22;16382;59.942;30.472;2022-10-03T16:52:47;8.30;99.90
29403;DHT22;16382;59.942;30.472;2022-10-03T16:55:20;8.30;99.90
29403;DHT22;16382;59.942;30.472;2022-10-03T16:57:50;8.30;99.90
29403;DHT22;16382;59.942;30.472;2022-10-03T17:00:31;8.30;99.90
29403;DHT22;16382;59.942;30.472;2022-10-03T17:03:04;8.30;99.90
29403;DHT22;16382;59.942;30.472;2022-10-03T17:05:45;8.30;99.90
29403;DHT22;16382;59.942;30.472;2022-10-03T17:08:16;8.20;99.90
29403;DHT22;16382;59.942;30.472;2022-10-03T17:10:45;8.30;99.90
29403;DHT22;16382;59.942;30.472;2022-10-03T17:13:21;8.30;99.90
29403;DHT22;16382;59.942;30.472;2022-10-03T17:15:58;8.30;99.90
29403;DHT22;16382;59.942;30.472;2022-10-03T17:18:32;8.30;99.90
29403;DHT22;16382;59.942;30.472;2022-10-03T17:21:07;8.20;99.90
29403;DHT22;16382;59.942;30.472;2022-10-03T17:23:51;8.20;99.90
29403;DHT22;16382;59.942;30.472;2022-10-03T17:26:26;8.20;99.90
29403;DHT22;16382;59.942;30.472;2022-10-03T17:29:05;8.30;99.90
29403;DHT22;16382;59.942;30.472;2022-10-03T17:31:43;8.30;99.90
29403;DHT22;16382;59.942;30.472;2022-10-03T17:34:16;8.30;99.90
29403;DHT22;16382;59.942;30.472;2022-10-03T17:37:02;8.30;99.90
29403;DHT22;16382;59.942;30.472;2022-10-03T17:39:40;8.30;99.90
29403;DHT22;16382;59.942;30.472;2022-10-03T17:42:22;8.30;99.90
29403;DHT22;16382;59.942;30.472;2022-10-03T17:45:01;8.30;99.90
29403;DHT22;16382;59.942;30.472;2022-10-03T17:47:48;8.30;99.90
29403;DHT22;16382;59.942;30.472;2022-10-03T17:50:24;8.30;99.90
29403;DHT22;16382;59.942;30.472;2022-10-03T17:52:56;8.30;99.90
29403;DHT22;16382;59.942;30.472;2022-10-03T17:55:29;8.30;99.90
29403;DHT22;16382;59.942;30.472;2022-10-03T17:58:02;8.30;99.90
29403;DHT22;16382;59.942;30.472;2022-10-03T18:03:26;8.30;99.90
29403;DHT22;16382;59.942;30.472;2022-10-03T18:05:59;8.20;99.90
29403;DHT22;16382;59.942;30.472;2022-10-03T18:08:50;8.20;99.90
29403;DHT22;16382;59.942;30.472;2022-10-03T18:11:21;8.20;99.90
29403;DHT22;16382;59.942;30.472;2022-10-03T18:13:52;8.30;99.90
29403;DHT22;16382;59.942;30.472;2022-10-03T18:16:36;8.30;99.90
29403;DHT22;16382;59.942;30.472;2022-10-03T18:19:25;8.30;99.90
29403;DHT22;16382;59.942;30.472;2022-10-03T18:22:05;8.30;99.90
29403;DHT22;16382;59.942;30.472;2022-10-03T18:24:54;8.30;99.90
29403;DHT22;16382;59.942;30.472;2022-10-03T18:30:31;8.30;99.90
29403;DHT22;16382;59.942;30.472;2022-10-03T18:33:01;8.30;99.90
29403;DHT22;16382;59.942;30.472;2022-10-03T18:35:35;8.30;99.90
29403;DHT22;16382;59.942;30.472;2022-10-03T18:38:10;8.30;99.90
29403;DHT22;16382;59.942;30.472;2022-10-03T18:40:47;8.30;99.90
29403;DHT22;16382;59.942;30.472;2022-10-03T18:43:31;8.30;99.90
29403;DHT22;16382;59.942;30.472;2022-10-03T18:46:10;8.30;99.90
29403;DHT22;16382;59.942;30.472;2022-10-03T18:48:48;8.20;99.90
29403;DHT22;16382;59.942;30.472;2022-10-03T18:51:31;8.20;99.90
29403;DHT22;16382;59.942;30.472;2022-10-03T18:54:04;8.30;99.90
29403;DHT22;16382;59.942;30.472;2022-10-03T18:56:40;8.30;99.90
29403;DHT22;16382;59.942;30.472;2022-10-03T18:59:14;8.30;99.90
29403;DHT22;16382;59.942;30.472;2022-10-03T19:01:49;8.40;99.90
29403;DHT22;16382;59.942;30.472;2022-10-03T19:04:31;8.40;99.90
29403;DHT22;16382;59.942;30.472;2022-10-03T19:07:10;8.50;99.90
29403;DHT22;16382;59.942;30.472;2022-10-03T19:12:47;8.50;99.90
29403;DHT22;16382;59.942;30.472;2022-10-03T19:15:20;8.40;99.90
29403;DHT22;16382;59.942;30.472;2022-10-03T19:18:07;8.40;99.90
29403;DHT22;16382;59.942;30.472;2022-10-03T19:20:44;8.40;99.90
29403;DHT22;16382;59.942;30.472;2022-10-03T19:23:21;8.50;99.90
29403;DHT22;16382;59.942;30.472;2022-10-03T19:25:56;8.50;99.90
29403;DHT22;16382;59.942;30.472;2022-10-03T19:28:30;8.50;99.90
29403;DHT22;16382;59.942;30.472;2022-10-03T19:31:03;8.50;99.90
29403;DHT22;16382;59.942;30.472;2022-10-03T19:33:36;8.50;99.90
29403;DHT22;16382;59.942;30.472;2022-10-03T19:36:13;8.50;99.90
29403;DHT22;16382;59.942;30.472;2022-10-03T19:38:45;8.50;99.90
29403;DHT22;16382;59.942;30.472;2022-10-03T19:41:26;8.50;99.90
29403;DHT22;16382;59.942;30.472;2022-10-03T19:44:13;8.50;99.90
29403;DHT22;16382;59.942;30.472;2022-10-03T19:47:04;8.40;99.90
29403;DHT22;16382;59.942;30.472;2022-10-03T19:49:53;8.50;99.90
29403;DHT22;16382;59.942;30.472;2022-10-03T19:52:27;8.40;99.90
29403;DHT22;16382;59.942;30.472;2022-10-03T19:55:03;8.40;99.90
29403;DHT22;16382;59.942;30.472;2022-10-03T19:57:43;8.40;99.90
29403;DHT22;16382;59.942;30.472;2022-10-03T20:00:26;8.40;99.90
29403;DHT22;16382;59.942;30.472;2022-10-03T20:03:04;8.40;99.90
29403;DHT22;16382;59.942;30.472;2022-10-03T20:06:01;8.40;99.90
29403;DHT22;16382;59.942;30.472;2022-10-03T20:08:44;8.40;99.90
29403;DHT22;16382;59.942;30.472;2022-10-03T20:11:39;8.50;99.90
29403;DHT22;16382;59.942;30.472;2022-10-03T20:14:13;8.40;99.90
29403;DHT22;16382;59.942;30.472;2022-10-03T20:16:45;8.50;99.90
29403;DHT22;16382;59.942;30.472;2022-10-03T20:19:15;8.50;99.90